Time;durP1;ratioP1;P1;durP2;ratioP2;P2;SDS_P1;SDS_P2;PMS_P1;PMS_P2;Temp;Humidity;BMP_temperature;BMP_pressure;BME280_temperature;BME280_humidity;BME280_pressure;Samples;Min_cycle;Max_cycle;Signal;HPM_P1;HPM_P2
2023/11/01 00:00:10;;;;;;;2.60;1.98;;;12.50;88.90;;;;;;9159016;19;20018;-72
2023/11/01 00:03:24;;;;;;;5.68;2.47;;;12.40;88.90;;;;;;9157710;19;20021;-72
2023/11/01 00:06:30;;;;;;;6.05;2.40;;;12.40;88.90;;;;;;9158831;19;20027;-72
2023/11/01 00:09:37;;;;;;;3.55;1.98;;;12.40;88.90;;;;;;9158765;19;20018;-73
2023/11/01 00:12:43;;;;;;;4.72;2.42;;;12.40;89.00;;;;;;9159627;19;20022;-71
2023/11/01 00:15:50;;;;;;;4.35;1.83;;;12.40;89.00;;;;;;9159136;19;20018;-73
2023/11/01 00:18:58;;;;;;;3.63;1.70;;;12.40;89.00;;;;;;9163869;19;20010;-74
2023/11/01 00:22:06;;;;;;;3.55;1.35;;;12.40;89.10;;;;;;9161986;19;20021;-72
2023/11/01 00:25:12;;;;;;;2.55;1.60;;;12.40;89.10;;;;;;9164420;19;20022;-72
2023/11/01 00:28:19;;;;;;;2.00;1.30;;;12.40;89.10;;;;;;9163433;19;20018;-72
2023/11/01 00:31:24;;;;;;;1.33;1.17;;;12.40;89.10;;;;;;9159455;19;20022;-72
2023/11/01 00:34:34;;;;;;;3.58;1.40;;;12.40;89.10;;;;;;9163691;19;20014;-72
2023/11/01 00:37:40;;;;;;;8.20;1.80;;;12.30;89.10;;;;;;9162005;19;20015;-72
2023/11/01 00:40:47;;;;;;;5.80;1.70;;;12.30;89.10;;;;;;9160484;19;20010;-72
2023/11/01 00:43:53;;;;;;;8.27;2.85;;;12.30;89.00;;;;;;9164894;19;20082;-72
2023/11/01 00:47:00;;;;;;;6.88;3.47;;;12.30;89.10;;;;;;9165197;19;20022;-71
2023/11/01 00:50:09;;;;;;;11.90;4.75;;;12.30;89.10;;;;;;9164321;19;20048;-71
2023/11/01 00:53:17;;;;;;;14.77;5.25;;;12.30;89.10;;;;;;9161765;19;20030;-71
2023/11/01 00:56:22;;;;;;;11.55;4.65;;;12.30;89.10;;;;;;9162642;19;20014;-72
2023/11/01 00:59:30;;;;;;;10.85;6.25;;;12.30;89.10;;;;;;9162916;19;20514;-71
2023/11/01 01:02:35;;;;;;;18.90;6.50;;;12.20;89.00;;;;;;9159771;19;20060;-72
2023/11/01 01:05:48;;;;;;;19.92;7.53;;;12.30;89.10;;;;;;9162171;19;20063;-73
2023/11/01 01:08:54;;;;;;;15.88;6.60;;;12.30;89.10;;;;;;9163644;19;20018;-72
2023/11/01 01:12:01;;;;;;;18.05;9.00;;;12.20;89.00;;;;;;9165436;19;20022;-71
2023/11/01 01:15:07;;;;;;;15.95;7.13;;;12.20;89.10;;;;;;9171998;19;20021;-72
2023/11/01 01:18:17;;;;;;;14.57;7.07;;;12.20;89.10;;;;;;9171743;19;20041;-72
2023/11/01 01:21:25;;;;;;;17.88;7.43;;;12.20;89.70;;;;;;9170005;19;20077;-72
2023/11/01 01:24:33;;;;;;;13.20;7.40;;;12.20;89.20;;;;;;9171719;19;20574;-71
2023/11/01 01:27:41;;;;;;;15.52;7.32;;;12.20;89.10;;;;;;9168203;19;20239;-72
2023/11/01 01:30:48;;;;;;;17.17;6.70;;;12.20;89.20;;;;;;9165533;19;20025;-72
2023/11/01 01:33:54;;;;;;;15.32;6.40;;;12.20;89.20;;;;;;9167599;19;20382;-72
2023/11/01 01:37:07;;;;;;;18.45;7.22;;;12.20;89.30;;;;;;9170039;19;20019;-72
2023/11/01 01:40:14;;;;;;;15.85;6.82;;;12.10;89.30;;;;;;9169369;19;20298;-72
2023/11/01 01:43:22;;;;;;;21.35;6.50;;;12.20;89.30;;;;;;9170065;19;20018;-71
2023/11/01 01:46:31;;;;;;;16.23;6.97;;;12.20;89.30;;;;;;9168435;19;20011;-71
2023/11/01 01:49:38;;;;;;;18.77;6.32;;;12.20;89.40;;;;;;9167683;19;20428;-72
2023/11/01 01:52:52;;;;;;;19.00;6.07;;;12.20;89.40;;;;;;9169910;19;20018;-72
2023/11/01 01:56:01;;;;;;;22.85;7.13;;;12.20;89.50;;;;;;9171037;19;20018;-72
2023/11/01 01:59:07;;;;;;;17.80;6.47;;;12.20;89.50;;;;;;9170073;19;20037;-72
2023/11/01 02:02:18;;;;;;;22.98;6.55;;;12.20;89.50;;;;;;9166858;19;20041;-72
2023/11/01 02:05:24;;;;;;;19.88;6.30;;;11.80;89.30;;;;;;9167952;19;20026;-72
2023/11/01 02:08:35;;;;;;;15.52;5.35;;;12.20;89.60;;;;;;9167599;19;20010;-71
2023/11/01 02:11:41;;;;;;;16.50;6.25;;;12.20;89.60;;;;;;9164555;19;20011;-71
2023/11/01 02:14:49;;;;;;;16.35;5.75;;;12.20;89.60;;;;;;9169683;19;20483;-72
2023/11/01 02:17:54;;;;;;;15.05;5.57;;;12.20;89.60;;;;;;9168828;19;20504;-71
2023/11/01 02:21:02;;;;;;;21.83;5.55;;;12.20;89.70;;;;;;9167593;19;20384;-72
2023/11/01 02:24:10;;;;;;;19.85;5.50;;;12.20;89.70;;;;;;9167606;19;20007;-71
2023/11/01 02:27:18;;;;;;;12.18;5.55;;;12.20;89.70;;;;;;9167931;19;20349;-72
2023/11/01 02:30:24;;;;;;;15.32;4.90;;;12.20;89.70;;;;;;9164664;19;20026;-71
2023/11/01 02:33:32;;;;;;;17.38;5.25;;;12.20;89.70;;;;;;9167922;19;20011;-71
2023/11/01 02:36:38;;;;;;;19.02;5.53;;;12.30;89.80;;;;;;9170161;19;20010;-71
2023/11/01 02:39:48;;;;;;;11.13;5.43;;;12.30;89.80;;;;;;9167997;19;20019;-71
2023/11/01 02:42:55;;;;;;;18.25;4.68;;;12.30;89.80;;;;;;9166191;19;20019;-71
2023/11/01 02:46:03;;;;;;;14.10;5.25;;;12.30;89.80;;;;;;9166798;19;20018;-71
2023/11/01 02:49:08;;;;;;;15.27;4.85;;;12.30;89.90;;;;;;9165500;19;20010;-71
2023/11/01 02:52:16;;;;;;;22.67;4.85;;;12.30;89.90;;;;;;9165758;19;20014;-71
2023/11/01 02:55:24;;;;;;;19.67;5.45;;;12.40;89.90;;;;;;9167732;19;20023;-71
2023/11/01 02:58:34;;;;;;;21.48;5.63;;;12.40;89.90;;;;;;9167276;19;20015;-71
2023/11/01 03:01:42;;;;;;;11.65;4.75;;;12.40;89.90;;;;;;9166983;19;20021;-71
2023/11/01 03:04:49;;;;;;;12.38;4.45;;;12.40;89.90;;;;;;9165150;19;20357;-71
2023/11/01 03:07:56;;;;;;;12.80;4.47;;;12.40;89.90;;;;;;9165715;19;20808;-71
2023/11/01 03:11:06;;;;;;;12.73;4.85;;;12.40;89.90;;;;;;9160753;19;20025;-71
2023/11/01 03:14:12;;;;;;;21.15;4.70;;;12.40;89.90;;;;;;9164425;19;20033;-71
2023/11/01 03:17:19;;;;;;;11.93;4.10;;;12.40;89.90;;;;;;9162477;19;20022;-72
2023/11/01 03:20:26;;;;;;;15.38;4.47;;;12.40;89.90;;;;;;9164352;19;21491;-71
2023/11/01 03:23:33;;;;;;;10.48;4.00;;;12.50;90.00;;;;;;9161115;19;20018;-70
2023/11/01 03:26:43;;;;;;;20.38;4.60;;;12.40;90.00;;;;;;9161338;19;20015;-71
2023/11/01 03:29:51;;;;;;;10.20;3.50;;;12.50;90.00;;;;;;9158682;19;20025;-70
2023/11/01 03:32:56;;;;;;;13.23;3.92;;;12.50;90.00;;;;;;9161847;19;20360;-70
2023/11/01 03:36:05;;;;;;;14.98;3.80;;;12.40;90.00;;;;;;9163633;19;20019;-71
2023/11/01 03:39:11;;;;;;;14.35;4.28;;;12.40;90.00;;;;;;9162153;19;20018;-72
2023/11/01 03:42:21;;;;;;;12.15;3.70;;;12.50;90.00;;;;;;9158893;19;20368;-72
2023/11/01 03:45:27;;;;;;;13.25;3.83;;;12.40;90.00;;;;;;9163033;19;20014;-71
2023/11/01 03:48:34;;;;;;;6.35;3.25;;;12.40;90.00;;;;;;9161997;19;20786;-70
2023/11/01 03:51:39;;;;;;;11.23;3.80;;;12.40;90.00;;;;;;9162398;19;20014;-71
2023/11/01 03:54:47;;;;;;;10.32;3.55;;;12.40;90.00;;;;;;9163174;19;20253;-72
2023/11/01 03:57:55;;;;;;;14.57;3.45;;;12.40;90.00;;;;;;9163618;19;20015;-73
2023/11/01 04:01:02;;;;;;;15.27;3.42;;;12.40;90.00;;;;;;9160803;19;20501;-70
2023/11/01 04:04:08;;;;;;;12.52;2.90;;;12.40;90.00;;;;;;9159940;19;20139;-70
2023/11/01 04:07:15;;;;;;;17.17;3.75;;;12.40;90.00;;;;;;9163064;19;20013;-71
2023/11/01 04:10:21;;;;;;;8.40;2.97;;;12.40;90.00;;;;;;9162139;19;20011;-70
2023/11/01 04:13:31;;;;;;;9.88;2.67;;;12.40;90.00;;;;;;9164750;19;20022;-71
2023/11/01 04:16:37;;;;;;;9.40;2.83;;;12.40;90.00;;;;;;9164439;19;20808;-72
2023/11/01 04:19:44;;;;;;;10.25;2.75;;;12.40;90.00;;;;;;9161257;19;20025;-71
2023/11/01 04:22:50;;;;;;;12.18;3.42;;;12.40;90.00;;;;;;9163021;19;20014;-71
2023/11/01 04:26:00;;;;;;;11.10;2.97;;;12.40;90.00;;;;;;9162047;19;20021;-71
2023/11/01 04:29:08;;;;;;;10.18;2.72;;;12.40;90.00;;;;;;9163447;19;20019;-71
2023/11/01 04:32:16;;;;;;;17.52;3.03;;;12.40;90.00;;;;;;9158209;19;20490;-72
2023/11/01 04:35:21;;;;;;;12.48;3.53;;;12.40;90.00;;;;;;9163363;19;20018;-72
2023/11/01 04:38:29;;;;;;;7.85;2.80;;;12.40;90.00;;;;;;9163307;19;20820;-71
2023/11/01 04:41:34;;;;;;;12.60;2.53;;;12.50;90.10;;;;;;9163691;19;20022;-72
2023/11/01 04:44:44;;;;;;;10.20;2.70;;;12.40;90.00;;;;;;9161446;19;20041;-71
2023/11/01 04:47:50;;;;;;;10.15;2.58;;;12.40;90.00;;;;;;9162954;19;20513;-72
2023/11/01 04:50:59;;;;;;;9.60;3.20;;;12.40;90.00;;;;;;9162286;19;20018;-71
2023/11/01 04:54:06;;;;;;;14.20;2.63;;;12.40;90.10;;;;;;9163520;19;20025;-72
2023/11/01 04:57:14;;;;;;;13.18;2.75;;;12.50;90.10;;;;;;9161706;19;20034;-72
2023/11/01 05:00:22;;;;;;;11.85;2.60;;;12.50;90.10;;;;;;9163632;19;20022;-72
2023/11/01 05:03:29;;;;;;;7.60;2.72;;;12.50;90.10;;;;;;9161277;19;20018;-71
2023/11/01 05:06:35;;;;;;;7.88;3.42;;;12.50;90.10;;;;;;9161888;19;20035;-72
2023/11/01 05:09:42;;;;;;;11.18;2.45;;;12.40;90.10;;;;;;9160958;19;20015;-71
2023/11/01 05:12:48;;;;;;;10.93;2.47;;;12.50;90.10;;;;;;9160633;19;20350;-71
2023/11/01 05:15:58;;;;;;;10.60;2.67;;;12.50;90.10;;;;;;9162710;19;20014;-71
2023/11/01 05:19:08;;;;;;;6.38;2.10;;;12.50;90.10;;;;;;9163411;19;20025;-72
2023/11/01 05:22:15;;;;;;;5.50;2.42;;;12.50;90.10;;;;;;9162128;19;20022;-71
2023/11/01 05:25:21;;;;;;;9.90;2.50;;;12.50;90.10;;;;;;9161873;19;20048;-72
2023/11/01 05:28:28;;;;;;;6.95;2.30;;;12.50;90.20;;;;;;9160300;19;20018;-72
2023/11/01 05:31:36;;;;;;;10.30;2.63;;;12.50;90.10;;;;;;9158512;19;20010;-72
2023/11/01 05:34:45;;;;;;;12.68;2.55;;;12.50;90.10;;;;;;9160804;19;20587;-72
2023/11/01 05:37:52;;;;;;;7.97;2.30;;;12.50;90.10;;;;;;9161405;19;20014;-72
2023/11/01 05:40:59;;;;;;;8.45;2.20;;;12.50;90.20;;;;;;9159596;19;20010;-73
2023/11/01 05:44:04;;;;;;;7.70;2.42;;;12.50;90.10;;;;;;9157947;19;20345;-73
2023/11/01 05:47:15;;;;;;;7.45;2.35;;;12.50;90.20;;;;;;9159789;19;20407;-73
2023/11/01 05:50:23;;;;;;;7.18;2.22;;;12.50;90.20;;;;;;9158855;19;20019;-73
2023/11/01 05:53:32;;;;;;;5.80;2.22;;;12.50;90.20;;;;;;9159640;19;20559;-74
2023/11/01 05:56:37;;;;;;;8.77;2.70;;;12.50;90.20;;;;;;9160850;19;20514;-74
2023/11/01 05:59:45;;;;;;;6.88;2.97;;;12.50;90.20;;;;;;9168312;19;20041;-73
2023/11/01 06:02:53;;;;;;;8.32;2.70;;;12.50;90.20;;;;;;9168063;19;20010;-73
2023/11/01 06:06:00;;;;;;;5.75;3.30;;;12.50;90.20;;;;;;9168796;19;20790;-73
2023/11/01 06:09:06;;;;;;;11.55;4.95;;;12.50;90.20;;;;;;9169676;19;20024;-73
2023/11/01 06:12:13;;;;;;;8.77;5.50;;;12.50;90.20;;;;;;9169531;19;20026;-73
2023/11/01 06:15:18;;;;;;;8.68;4.50;;;12.60;90.20;;;;;;9168097;19;20015;-73
2023/11/01 06:18:30;;;;;;;10.25;3.80;;;12.60;90.30;;;;;;9166307;19;20029;-73
2023/11/01 06:21:36;;;;;;;7.00;3.72;;;12.60;90.20;;;;;;9168106;19;20014;-73
2023/11/01 06:24:43;;;;;;;6.72;4.10;;;12.60;90.30;;;;;;9166210;19;20023;-73
2023/11/01 06:27:49;;;;;;;7.97;3.50;;;12.60;90.30;;;;;;9168822;19;20021;-73
2023/11/01 06:30:58;;;;;;;14.77;7.20;;;12.60;90.30;;;;;;9163423;19;20471;-73
2023/11/01 06:34:06;;;;;;;8.02;5.68;;;12.60;90.30;;;;;;9165511;19;20014;-73
2023/11/01 06:37:14;;;;;;;10.25;3.95;;;12.60;90.30;;;;;;9165728;19;20042;-72
2023/11/01 06:40:20;;;;;;;8.93;4.30;;;12.60;90.30;;;;;;9165008;19;20386;-73
2023/11/01 06:43:28;;;;;;;5.50;4.13;;;12.60;90.30;;;;;;9163969;19;20019;-73
2023/11/01 06:46:34;;;;;;;5.35;4.25;;;12.70;90.40;;;;;;9166042;19;20022;-73
2023/11/01 06:49:44;;;;;;;8.45;4.70;;;12.60;90.30;;;;;;9163019;19;20017;-73
2023/11/01 06:52:49;;;;;;;8.05;4.28;;;12.60;90.30;;;;;;9165669;19;20397;-74
2023/11/01 06:55:56;;;;;;;8.98;4.55;;;12.60;90.30;;;;;;9166367;19;20484;-73
2023/11/01 06:59:02;;;;;;;10.13;6.85;;;12.70;90.30;;;;;;9165514;19;20130;-73
2023/11/01 07:02:11;;;;;;;9.00;5.78;;;12.70;90.30;;;;;;9167248;19;20018;-73
2023/11/01 07:05:19;;;;;;;10.73;5.15;;;12.70;90.40;;;;;;9164681;19;20014;-73
2023/11/01 07:08:26;;;;;;;5.93;4.45;;;12.70;90.40;;;;;;9166107;19;20011;-73
2023/11/01 07:11:32;;;;;;;8.30;4.15;;;12.70;90.40;;;;;;9163384;19;20043;-73
2023/11/01 07:14:39;;;;;;;5.30;3.97;;;12.70;90.40;;;;;;9165858;19;20018;-73
2023/11/01 07:17:45;;;;;;;6.13;3.85;;;12.70;90.40;;;;;;9161935;19;20437;-72
2023/11/01 07:20:55;;;;;;;6.63;4.07;;;12.70;90.30;;;;;;9161942;19;20813;-73
2023/11/01 07:24:01;;;;;;;10.10;4.57;;;12.80;90.40;;;;;;9162216;19;20029;-73
2023/11/01 07:27:09;;;;;;;6.18;4.18;;;12.70;90.40;;;;;;9158431;19;20029;-73
2023/11/01 07:30:14;;;;;;;7.55;3.60;;;12.80;90.40;;;;;;9159342;19;20024;-75
2023/11/01 07:33:22;;;;;;;5.35;3.22;;;12.80;90.40;;;;;;9163674;19;20047;-75
2023/11/01 07:36:30;;;;;;;5.30;3.47;;;12.80;90.40;;;;;;9162331;19;20014;-75
2023/11/01 07:39:38;;;;;;;6.13;4.65;;;12.80;90.40;;;;;;9159737;19;20571;-76
2023/11/01 07:42:45;;;;;;;5.63;3.65;;;12.90;90.40;;;;;;9160216;19;20021;-73
2023/11/01 07:45:52;;;;;;;8.13;4.35;;;12.80;90.40;;;;;;9157870;19;20338;-73
2023/11/01 07:48:58;;;;;;;6.68;3.60;;;12.80;90.40;;;;;;9159527;19;20022;-73
2023/11/01 07:52:09;;;;;;;8.63;3.78;;;12.90;90.70;;;;;;9160221;19;20029;-73
2023/11/01 07:55:14;;;;;;;14.13;3.45;;;12.90;90.50;;;;;;9161067;19;19998;-72
2023/11/01 07:58:22;;;;;;;18.65;5.30;;;12.90;90.50;;;;;;9159726;19;20014;-73
2023/11/01 08:01:27;;;;;;;5.75;3.50;;;13.00;90.80;;;;;;9162362;19;20014;-73
2023/11/01 08:04:35;;;;;;;11.18;3.90;;;13.00;90.60;;;;;;9159991;19;20018;-73
2023/11/01 08:07:43;;;;;;;8.88;3.72;;;13.00;90.60;;;;;;9160662;19;20089;-73
2023/11/01 08:10:50;;;;;;;9.95;3.70;;;13.00;90.60;;;;;;9159285;19;20018;-73
2023/11/01 08:13:57;;;;;;;16.92;3.80;;;13.10;90.60;;;;;;9159127;19;20388;-72
2023/11/01 08:17:04;;;;;;;13.05;3.80;;;13.10;90.60;;;;;;9161305;19;20030;-72
2023/11/01 08:20:10;;;;;;;19.80;4.40;;;13.10;90.60;;;;;;9160580;19;20848;-72
2023/11/01 08:23:20;;;;;;;18.55;3.92;;;13.10;90.60;;;;;;9160503;19;20018;-73
2023/11/01 08:26:26;;;;;;;16.02;4.10;;;13.20;90.70;;;;;;9158419;19;20053;-73
2023/11/01 08:29:35;;;;;;;16.60;4.07;;;13.20;90.70;;;;;;9151337;19;20034;-73
2023/11/01 08:32:40;;;;;;;18.73;3.72;;;13.30;90.70;;;;;;9158104;19;20014;-72
2023/11/01 08:35:48;;;;;;;12.63;4.35;;;13.30;90.70;;;;;;9157808;19;20017;-74
2023/11/01 08:38:56;;;;;;;12.75;3.50;;;13.30;90.70;;;;;;9158145;19;20018;-72
2023/11/01 08:42:08;;;;;;;14.77;4.57;;;13.40;90.80;;;;;;9155298;19;20018;-72
2023/11/01 08:45:13;;;;;;;22.15;4.30;;;13.40;90.70;;;;;;9159381;19;20501;-73
2023/11/01 08:48:21;;;;;;;23.27;3.85;;;13.40;90.70;;;;;;9157790;19;20026;-72
2023/11/01 08:51:28;;;;;;;25.42;4.30;;;13.50;90.80;;;;;;9161042;19;20445;-72
2023/11/01 08:54:40;;;;;;;14.25;4.32;;;13.50;90.80;;;;;;9158519;19;20030;-72
2023/11/01 08:57:47;;;;;;;16.08;3.58;;;13.60;90.80;;;;;;9160575;19;20014;-72
2023/11/01 09:00:54;;;;;;;16.45;2.80;;;13.60;90.80;;;;;;9160985;19;20014;-72
2023/11/01 09:04:03;;;;;;;14.68;3.05;;;13.60;90.80;;;;;;9158474;19;20086;-72
2023/11/01 09:07:11;;;;;;;15.57;2.80;;;13.60;90.80;;;;;;9158163;19;20015;-72
2023/11/01 09:10:19;;;;;;;13.45;3.33;;;13.70;90.80;;;;;;9158991;19;20106;-72
2023/11/01 09:13:27;;;;;;;13.63;3.05;;;13.70;90.80;;;;;;9157823;19;20033;-72
2023/11/01 09:16:32;;;;;;;18.55;3.33;;;13.70;90.80;;;;;;9159336;19;20022;-72
2023/11/01 09:19:41;;;;;;;21.10;3.30;;;13.70;90.80;;;;;;9160109;19;20756;-71
2023/11/01 09:22:46;;;;;;;18.42;3.63;;;13.80;90.80;;;;;;9159626;19;20010;-73
2023/11/01 09:25:58;;;;;;;16.73;3.08;;;13.70;90.80;;;;;;9156472;19;20033;-73
2023/11/01 09:29:06;;;;;;;15.80;3.05;;;13.80;92.00;;;;;;9154393;19;20028;-73
2023/11/01 09:32:14;;;;;;;20.08;4.38;;;13.90;93.30;;;;;;9155689;19;20018;-72
2023/11/01 09:35:20;;;;;;;11.88;2.25;;;14.00;93.50;;;;;;9169041;19;20128;-74
2023/11/01 09:38:27;;;;;;;17.40;2.53;;;14.00;94.40;;;;;;9165673;19;20026;-73
2023/11/01 09:41:41;;;;;;;5.90;2.10;;;14.20;92.90;;;;;;9168313;19;20018;-73
2023/11/01 09:44:50;;;;;;;8.45;2.47;;;14.10;92.30;;;;;;9165597;19;20023;-72
2023/11/01 09:47:55;;;;;;;16.85;2.30;;;14.00;92.30;;;;;;9167459;19;20014;-72
2023/11/01 09:51:05;;;;;;;14.20;2.33;;;14.00;92.50;;;;;;9164562;19;20027;-73
2023/11/01 09:54:13;;;;;;;21.90;3.38;;;14.00;92.40;;;;;;9168134;19;20149;-72
2023/11/01 09:57:27;;;;;;;24.48;3.25;;;14.10;92.40;;;;;;9168413;19;20274;-72
2023/11/01 10:00:35;;;;;;;12.00;1.95;;;14.10;92.40;;;;;;9165776;19;20015;-73
2023/11/01 10:03:43;;;;;;;21.75;2.80;;;14.20;92.80;;;;;;9169168;19;20011;-73
2023/11/01 10:06:49;;;;;;;14.07;2.38;;;14.20;92.50;;;;;;9165468;19;20029;-73
2023/11/01 10:09:59;;;;;;;11.73;2.58;;;14.20;92.50;;;;;;9169917;19;20019;-73
2023/11/01 10:13:11;;;;;;;18.33;2.60;;;14.30;92.70;;;;;;9167671;19;20459;-73
2023/11/01 10:16:18;;;;;;;10.82;1.80;;;14.40;92.80;;;;;;9167819;19;20018;-73
2023/11/01 10:19:24;;;;;;;19.38;2.33;;;14.40;92.70;;;;;;9168972;19;20060;-73
2023/11/01 10:22:32;;;;;;;13.60;2.30;;;14.40;92.70;;;;;;9169248;19;20021;-73
2023/11/01 10:25:38;;;;;;;9.55;1.67;;;14.40;93.20;;;;;;9168963;19;20441;-73
2023/11/01 10:28:48;;;;;;;15.23;3.00;;;14.50;92.70;;;;;;9167577;19;20035;-73
2023/11/01 10:31:56;;;;;;;10.38;2.00;;;14.50;92.70;;;;;;9163735;19;20123;-73
2023/11/01 10:35:14;;;;;;;10.18;1.63;;;14.60;92.50;;;;;;9164158;19;20403;-73
2023/11/01 10:38:20;;;;;;;13.77;2.05;;;14.60;92.80;;;;;;9168278;19;20018;-73
2023/11/01 10:41:30;;;;;;;13.75;1.67;;;14.60;94.20;;;;;;9168730;19;20018;-73
2023/11/01 10:44:38;;;;;;;24.30;2.60;;;14.60;93.90;;;;;;9166220;19;20548;-73
2023/11/01 10:47:46;;;;;;;14.63;1.75;;;14.70;93.30;;;;;;9162225;19;20014;-73
2023/11/01 10:50:59;;;;;;;17.25;2.00;;;14.70;93.40;;;;;;9167620;19;20011;-72
2023/11/01 10:54:07;;;;;;;13.60;2.92;;;14.80;93.00;;;;;;9168855;19;20490;-73
2023/11/01 10:57:16;;;;;;;11.88;1.90;;;14.80;93.40;;;;;;9166428;19;20018;-72
2023/11/01 11:00:33;;;;;;;10.07;2.03;;;14.80;94.00;;;;;;9168075;19;20022;-72
2023/11/01 11:03:48;;;;;;;13.00;1.88;;;14.90;93.00;;;;;;9165626;19;20022;-73
2023/11/01 11:07:03;;;;;;;11.02;2.42;;;14.90;92.40;;;;;;9164421;19;20022;-72
2023/11/01 11:10:24;;;;;;;16.77;2.40;;;14.90;92.20;;;;;;9167237;19;20494;-73
2023/11/01 11:13:31;;;;;;;11.80;1.98;;;15.10;92.70;;;;;;9164865;19;20014;-73
2023/11/01 11:17:06;;;;;;;9.70;2.33;;;15.00;92.90;;;;;;9166799;19;20018;-74
2023/11/01 11:20:17;;;;;;;17.20;3.60;;;15.10;93.10;;;;;;9164937;19;20022;-73
2023/11/01 11:23:32;;;;;;;12.80;2.60;;;15.20;92.10;;;;;;9166646;19;20014;-73
2023/11/01 11:26:41;;;;;;;7.13;1.90;;;15.10;91.90;;;;;;9166146;19;20018;-73
2023/11/01 11:29:47;;;;;;;6.18;1.70;;;15.40;92.30;;;;;;9158776;19;20073;-72
2023/11/01 11:33:08;;;;;;;10.88;2.28;;;15.30;92.00;;;;;;9166822;19;20235;-72
2023/11/01 11:36:18;;;;;;;11.52;1.98;;;15.30;91.80;;;;;;9166406;19;20124;-72
2023/11/01 11:39:56;;;;;;;8.35;2.38;;;15.40;91.60;;;;;;9164282;19;20027;-72
2023/11/01 11:43:02;;;;;;;7.82;1.83;;;15.40;91.50;;;;;;9164393;19;20376;-73
2023/11/01 11:46:35;;;;;;;9.93;1.67;;;15.50;91.80;;;;;;9163181;19;20033;-73
2023/11/01 11:49:41;;;;;;;12.55;1.63;;;15.80;91.70;;;;;;9163261;19;20018;-74
2023/11/01 11:52:51;;;;;;;6.70;1.33;;;15.60;91.90;;;;;;9157811;19;20010;-73
2023/11/01 11:55:58;;;;;;;10.00;1.77;;;15.60;91.70;;;;;;9160574;19;20017;-73
2023/11/01 11:59:06;;;;;;;5.05;1.23;;;15.60;91.70;;;;;;9161082;19;20018;-73
2023/11/01 12:02:14;;;;;;;8.02;1.98;;;15.70;91.90;;;;;;9160637;19;20456;-74
2023/11/01 12:05:22;;;;;;;13.23;2.30;;;15.70;92.00;;;;;;9159938;19;20424;-73
2023/11/01 12:08:40;;;;;;;12.68;2.88;;;15.90;92.20;;;;;;9159911;19;20022;-73
2023/11/01 12:11:49;;;;;;;11.73;2.42;;;15.80;92.10;;;;;;9162174;19;20056;-73
2023/11/01 12:15:01;;;;;;;13.80;2.75;;;15.80;92.00;;;;;;9160787;19;20025;-72
2023/11/01 12:18:17;;;;;;;11.10;1.67;;;15.80;91.00;;;;;;9159807;19;20015;-73
2023/11/01 12:21:22;;;;;;;9.60;1.40;;;15.80;90.90;;;;;;9160283;19;20785;-72
2023/11/01 12:24:44;;;;;;;6.25;1.40;;;15.90;90.90;;;;;;9159121;19;20017;-73
2023/11/01 12:27:54;;;;;;;8.43;1.65;;;15.90;90.60;;;;;;9159086;19;20482;-73
2023/11/01 12:31:01;;;;;;;18.33;3.78;;;15.90;90.70;;;;;;9154591;19;20018;-73
2023/11/01 12:34:13;;;;;;;8.68;1.52;;;15.90;90.80;;;;;;9161223;19;20011;-73
2023/11/01 12:37:23;;;;;;;12.45;1.92;;;15.90;90.50;;;;;;9161228;19;20017;-73
2023/11/01 12:40:31;;;;;;;9.27;1.27;;;15.90;90.40;;;;;;9160941;19;20086;-73
2023/11/01 12:43:38;;;;;;;6.43;1.50;;;15.90;90.60;;;;;;9159521;19;20022;-74
2023/11/01 12:46:44;;;;;;;6.55;1.52;;;16.00;90.60;;;;;;9158648;19;20022;-75
2023/11/01 12:49:53;;;;;;;9.30;1.85;;;15.90;90.40;;;;;;9160066;19;20025;-73
2023/11/01 12:52:58;;;;;;;8.98;1.63;;;15.90;90.30;;;;;;9158935;19;20014;-73
2023/11/01 12:56:09;;;;;;;6.97;1.08;;;15.90;90.40;;;;;;9160099;19;20023;-72
2023/11/01 12:59:14;;;;;;;10.82;1.42;;;15.90;90.50;;;;;;9160611;19;20515;-73
2023/11/01 13:02:22;;;;;;;8.50;1.48;;;15.90;90.40;;;;;;9160174;19;20021;-73
2023/11/01 13:05:28;;;;;;;7.00;1.80;;;16.00;90.40;;;;;;9159661;19;20463;-73
2023/11/01 13:08:35;;;;;;;3.47;1.38;;;16.00;90.40;;;;;;9163320;19;20640;-73
2023/11/01 13:11:43;;;;;;;4.65;1.10;;;16.00;90.40;;;;;;9167231;19;20426;-73
2023/11/01 13:14:51;;;;;;;8.65;1.50;;;16.00;90.70;;;;;;9168755;19;20033;-74
2023/11/01 13:17:57;;;;;;;5.97;1.45;;;16.00;90.30;;;;;;9166769;19;20019;-73
2023/11/01 13:21:05;;;;;;;9.50;1.50;;;16.10;90.40;;;;;;9169007;19;20010;-72
2023/11/01 13:24:11;;;;;;;6.38;1.20;;;16.00;90.30;;;;;;9165554;19;20018;-71
2023/11/01 13:27:21;;;;;;;7.20;1.13;;;16.10;90.30;;;;;;9168673;19;20025;-73
2023/11/01 13:30:27;;;;;;;8.75;1.40;;;16.10;90.30;;;;;;9163624;19;20074;-73
2023/11/01 13:33:34;;;;;;;6.75;1.40;;;16.10;90.30;;;;;;9167274;19;20360;-72
2023/11/01 13:36:39;;;;;;;7.07;1.42;;;16.20;90.60;;;;;;9169110;19;20028;-73
2023/11/01 13:39:47;;;;;;;7.18;1.20;;;16.10;90.40;;;;;;9168672;19;20375;-73
2023/11/01 13:42:55;;;;;;;6.75;1.00;;;16.20;90.50;;;;;;9167878;19;20012;-72
2023/11/01 13:46:03;;;;;;;7.07;1.30;;;16.10;90.60;;;;;;9170398;19;20018;-73
2023/11/01 13:49:08;;;;;;;4.38;1.60;;;16.30;90.60;;;;;;9164576;19;20026;-72
2023/11/01 13:52:15;;;;;;;6.28;1.10;;;16.20;90.80;;;;;;9170087;19;20017;-73
2023/11/01 13:55:21;;;;;;;8.50;1.80;;;16.20;91.10;;;;;;9169432;19;20486;-73
2023/11/01 13:58:35;;;;;;;5.60;1.38;;;16.20;90.80;;;;;;9170364;19;20575;-74
2023/11/01 14:01:41;;;;;;;10.57;1.90;;;16.20;91.30;;;;;;9167420;19;20105;-73
2023/11/01 14:04:48;;;;;;;4.88;1.25;;;16.20;92.60;;;;;;9169985;19;20022;-73
2023/11/01 14:07:54;;;;;;;5.07;1.25;;;16.20;91.50;;;;;;9164417;19;20109;-73
2023/11/01 14:11:02;;;;;;;9.15;0.82;;;16.10;90.50;;;;;;9169727;19;20103;-74
2023/11/01 14:14:10;;;;;;;4.57;0.95;;;16.10;91.30;;;;;;9169942;19;20048;-73
2023/11/01 14:17:17;;;;;;;5.93;1.02;;;16.10;91.80;;;;;;9169336;19;20049;-74
2023/11/01 14:20:23;;;;;;;12.38;2.03;;;16.20;90.30;;;;;;9163892;19;20016;-74
2023/11/01 14:23:30;;;;;;;6.10;1.10;;;16.10;90.50;;;;;;9169462;19;20018;-72
2023/11/01 14:26:35;;;;;;;8.95;1.58;;;16.00;90.60;;;;;;9167696;19;20026;-72
2023/11/01 14:29:46;;;;;;;14.70;2.15;;;16.00;90.80;;;;;;9162336;19;20014;-72
2023/11/01 14:32:51;;;;;;;12.90;1.60;;;16.00;91.60;;;;;;9167364;19;20048;-72
2023/11/01 14:35:59;;;;;;;6.32;1.40;;;15.90;88.60;;;;;;9165133;19;20051;-71
2023/11/01 14:39:05;;;;;;;7.00;2.35;;;15.90;88.40;;;;;;9168537;19;20010;-72
2023/11/01 14:42:12;;;;;;;7.72;1.42;;;15.90;88.90;;;;;;9163868;19;20386;-74
2023/11/01 14:45:20;;;;;;;5.80;1.33;;;15.90;88.80;;;;;;9165929;19;20037;-72
2023/11/01 14:48:28;;;;;;;4.43;1.40;;;15.80;88.40;;;;;;9165897;19;20360;-72
2023/11/01 14:51:33;;;;;;;4.45;0.95;;;15.80;88.80;;;;;;9165948;19;20395;-73
2023/11/01 14:54:40;;;;;;;13.60;1.98;;;15.80;88.80;;;;;;9167953;19;20495;-73
2023/11/01 14:57:46;;;;;;;7.20;1.60;;;15.80;89.10;;;;;;9167620;19;20022;-72
2023/11/01 15:00:56;;;;;;;8.77;1.65;;;15.70;89.30;;;;;;9166989;19;20018;-73
2023/11/01 15:04:02;;;;;;;9.20;2.05;;;15.70;89.00;;;;;;9167544;19;20030;-72
2023/11/01 15:07:10;;;;;;;11.02;2.45;;;15.70;89.30;;;;;;9162998;19;20364;-73
2023/11/01 15:10:15;;;;;;;7.20;1.27;;;15.60;89.40;;;;;;9164709;19;20548;-72
2023/11/01 15:13:23;;;;;;;10.13;1.70;;;15.70;89.20;;;;;;9164780;19;20535;-73
2023/11/01 15:16:32;;;;;;;6.07;1.45;;;15.60;89.80;;;;;;9160876;19;20051;-72
2023/11/01 15:19:40;;;;;;;13.60;1.83;;;15.60;90.00;;;;;;9166469;19;20432;-73
2023/11/01 15:22:46;;;;;;;12.52;2.75;;;15.60;90.10;;;;;;9167450;19;20127;-73
2023/11/01 15:25:53;;;;;;;6.85;1.80;;;15.60;89.80;;;;;;9163615;19;20050;-72
2023/11/01 15:28:59;;;;;;;7.68;1.63;;;15.50;90.00;;;;;;9163541;19;20055;-72
2023/11/01 15:32:09;;;;;;;12.75;1.42;;;15.50;90.00;;;;;;9160173;19;20025;-72
2023/11/01 15:35:14;;;;;;;10.60;2.28;;;15.50;90.30;;;;;;9165371;19;20748;-72
2023/11/01 15:38:22;;;;;;;5.15;1.13;;;15.50;90.50;;;;;;9165756;19;20017;-72
2023/11/01 15:41:27;;;;;;;16.23;1.85;;;15.50;90.80;;;;;;9165093;19;20542;-72
2023/11/01 15:44:34;;;;;;;6.93;1.50;;;15.40;91.10;;;;;;9165327;19;20482;-72
2023/11/01 15:47:42;;;;;;;7.95;1.70;;;15.40;91.10;;;;;;9165123;19;20014;-72
2023/11/01 15:50:50;;;;;;;9.88;2.92;;;15.40;91.40;;;;;;9163385;19;20503;-72
2023/11/01 15:53:55;;;;;;;8.98;1.55;;;15.30;91.60;;;;;;9165517;19;20025;-73
2023/11/01 15:57:03;;;;;;;10.10;1.67;;;15.30;90.80;;;;;;9165177;19;20015;-73
2023/11/01 16:00:10;;;;;;;10.25;1.58;;;15.20;91.00;;;;;;9164922;19;20048;-73
2023/11/01 16:03:20;;;;;;;13.23;1.85;;;15.20;91.80;;;;;;9165355;19;20034;-73
2023/11/01 16:06:26;;;;;;;10.18;1.75;;;15.20;89.40;;;;;;9162578;19;20021;-71
2023/11/01 16:09:34;;;;;;;8.98;1.33;;;15.20;89.30;;;;;;9163648;19;20369;-73